Time;durP1;ratioP1;P1;durP2;ratioP2;P2;SDS_P1;SDS_P2;PMS_P1;PMS_P2;Temp;Humidity;BMP_temperature;BMP_pressure;BME280_temperature;BME280_humidity;BME280_pressure;Samples;Min_cycle;Max_cycle;Signal;HPM_P1;HPM_P2
2022/04/17 00:00:19;;;;;;;4.70;4.30;;;;;;;2.83;100.00;97470.16;5029577;28;105018;-65
2022/04/17 00:02:46;;;;;;;4.83;4.43;;;;;;;2.84;100.00;97466.56;5030452;28;102236;-65
2022/04/17 00:05:13;;;;;;;5.20;4.70;;;;;;;2.67;100.00;97459.81;5030180;28;105503;-65
2022/04/17 00:07:41;;;;;;;4.90;4.50;;;;;;;2.58;100.00;97459.03;5029584;28;105323;-66
2022/04/17 00:10:09;;;;;;;5.30;4.80;;;;;;;2.60;100.00;97464.94;5029889;28;102099;-65
2022/04/17 00:12:36;;;;;;;4.97;4.20;;;;;;;2.47;100.00;97454.19;5064241;27;106287;-65
2022/04/17 00:15:05;;;;;;;4.20;3.80;;;;;;;2.31;100.00;97456.09;5034333;28;102622;-65
2022/04/17 00:17:33;;;;;;;5.07;4.50;;;;;;;2.33;100.00;97456.72;5031503;28;102324;-65
2022/04/17 00:20:01;;;;;;;4.80;4.30;;;;;;;2.54;100.00;97449.06;5029097;28;106607;-65
2022/04/17 00:22:28;;;;;;;5.73;4.40;;;;;;;2.48;100.00;97444.50;5031616;28;101697;-65
2022/04/17 00:24:55;;;;;;;4.63;4.23;;;;;;;2.51;100.00;97449.41;5029641;28;105214;-65
2022/04/17 00:27:22;;;;;;;4.80;4.40;;;;;;;2.59;100.00;97444.09;5029203;28;106178;-65
2022/04/17 00:29:49;;;;;;;5.40;4.57;;;;;;;2.65;100.00;97446.03;5029715;28;101864;-65
2022/04/17 00:32:16;;;;;;;5.20;4.77;;;;;;;2.52;100.00;97445.81;5031224;28;102438;-65
2022/04/17 00:34:45;;;;;;;5.57;5.00;;;;;;;2.60;100.00;97443.09;5028826;28;105740;-66
2022/04/17 00:37:13;;;;;;;4.87;4.47;;;;;;;2.58;100.00;97448.53;5033172;28;102113;-65
2022/04/17 00:39:40;;;;;;;5.27;4.67;;;;;;;2.61;100.00;97444.72;5028915;28;105453;-65
2022/04/17 00:42:09;;;;;;;5.43;4.53;;;;;;;2.67;100.00;97438.81;5028559;27;101930;-65
2022/04/17 00:44:37;;;;;;;8.17;5.00;;;;;;;2.64;100.00;97428.63;5030966;28;102581;-65
2022/04/17 00:47:04;;;;;;;4.83;4.33;;;;;;;2.46;100.00;97436.00;5030007;27;104616;-66
2022/04/17 00:49:31;;;;;;;4.70;4.30;;;;;;;2.36;100.00;97435.41;5029505;28;102122;-65
2022/04/17 00:52:00;;;;;;;4.87;4.47;;;;;;;2.01;100.00;97435.91;5030882;28;103531;-65
2022/04/17 00:54:30;;;;;;;5.37;4.87;;;;;;;2.02;100.00;97427.88;5028647;28;105530;-65
2022/04/17 00:56:56;;;;;;;4.77;4.37;;;;;;;1.93;100.00;97422.84;5028899;28;102004;-65
2022/04/17 00:59:24;;;;;;;5.17;4.67;;;;;;;1.98;100.00;97425.78;5032280;28;105308;-65
2022/04/17 01:01:52;;;;;;;5.23;4.73;;;;;;;2.00;100.00;97429.88;5030469;28;101833;-65
2022/04/17 01:04:19;;;;;;;4.97;4.47;;;;;;;1.88;100.00;97419.94;5030649;28;102507;-65
2022/04/17 01:06:46;;;;;;;5.00;4.50;;;;;;;2.02;100.00;97413.97;5028475;28;105389;-66
2022/04/17 01:09:16;;;;;;;6.37;5.40;;;;;;;1.90;100.00;97417.94;5029115;28;101877;-65
2022/04/17 01:11:44;;;;;;;5.60;5.10;;;;;;;1.97;100.00;97419.72;5029148;28;105259;-65
2022/04/17 01:14:12;;;;;;;5.30;4.80;;;;;;;2.03;100.00;97410.34;5028514;28;105447;-65
2022/04/17 01:16:39;;;;;;;5.67;5.13;;;;;;;1.97;100.00;97411.03;5028773;28;101931;-65
2022/04/17 01:19:11;;;;;;;5.60;5.07;;;;;;;2.08;100.00;97410.66;5029071;28;105159;-65
2022/04/17 01:21:43;;;;;;;5.23;4.60;;;;;;;1.96;100.00;97406.75;5031765;28;102125;-65
2022/04/17 01:26:57;;;;;;;5.13;4.37;;;;;;;1.56;100.00;97412.19;5028548;28;105627;-65
2022/04/17 01:29:25;;;;;;;4.70;4.27;;;;;;;1.50;100.00;97421.56;5028641;28;102045;-65
2022/04/17 01:31:52;;;;;;;4.60;4.20;;;;;;;1.29;100.00;97418.69;5028911;28;105440;-66
2022/04/17 01:34:21;;;;;;;4.50;4.13;;;;;;;1.25;100.00;97419.16;5028206;28;105141;-65
2022/04/17 01:36:52;;;;;;;4.90;4.50;;;;;;;1.15;100.00;97416.75;5030211;28;101796;-65
2022/04/17 01:39:20;;;;;;;4.47;4.07;;;;;;;1.00;100.00;97413.16;5028667;28;105186;-65
2022/04/17 01:41:48;;;;;;;4.50;4.10;;;;;;;1.04;100.00;97411.84;5031626;28;105094;-65
2022/04/17 01:44:17;;;;;;;4.40;4.10;;;;;;;1.09;100.00;97409.56;5028721;28;104588;-65
2022/04/17 01:46:45;;;;;;;5.03;4.63;;;;;;;1.18;100.00;97410.34;5027743;28;105451;-65
2022/04/17 01:49:12;;;;;;;4.90;4.40;;;;;;;1.32;100.00;97412.28;5028508;28;101932;-65
2022/04/17 01:51:40;;;;;;;5.10;4.60;;;;;;;1.40;100.00;97420.13;5029881;27;102317;-65
2022/04/17 01:54:10;;;;;;;5.40;4.90;;;;;;;1.39;100.00;97414.06;5027940;28;104267;-65
2022/04/17 01:56:39;;;;;;;5.10;4.60;;;;;;;1.43;100.00;97407.47;5027939;28;102336;-65
2022/04/17 01:59:07;;;;;;;6.07;4.83;;;;;;;1.50;100.00;97402.41;5028489;28;105414;-66
2022/04/17 02:01:33;;;;;;;4.90;4.50;;;;;;;1.36;100.00;97400.47;5027966;28;105456;-66
2022/04/17 02:04:01;;;;;;;5.30;4.80;;;;;;;1.31;100.00;97397.56;5031811;28;101804;-65
2022/04/17 02:06:29;;;;;;;5.30;4.80;;;;;;;1.33;100.00;97395.56;5027428;28;105633;-65
2022/04/17 02:08:57;;;;;;;5.20;4.70;;;;;;;1.32;100.00;97393.94;5028467;28;101900;-66
2022/04/17 02:11:26;;;;;;;5.63;5.00;;;;;;;1.08;100.00;97397.44;5028373;28;105124;-65
2022/04/17 02:13:54;;;;;;;5.00;4.60;;;;;;;1.08;100.00;97392.22;5027436;28;105044;-65
2022/04/17 02:16:22;;;;;;;5.83;5.23;;;;;;;1.24;100.00;97388.72;5028319;28;101746;-65
2022/04/17 02:18:51;;;;;;;5.60;5.10;;;;;;;0.96;100.00;97395.34;5028082;28;105309;-65
2022/04/17 02:21:18;;;;;;;4.63;4.23;;;;;;;0.97;100.00;97391.72;5028829;27;102942;-65
2022/04/17 02:23:46;;;;;;;5.57;4.40;;;;;;;1.04;100.00;97388.28;5028409;28;101861;-65
2022/04/17 02:26:16;;;;;;;4.93;4.53;;;;;;;0.98;100.00;97394.19;5030796;28;105259;-65
2022/04/17 02:28:45;;;;;;;5.53;5.03;;;;;;;1.11;100.00;97388.44;5028084;28;101966;-66
2022/04/17 02:31:13;;;;;;;6.20;5.60;;;;;;;1.12;100.00;97382.22;5027997;28;105107;-65
2022/04/17 02:33:40;;;;;;;5.83;5.30;;;;;;;1.21;100.00;97378.59;5027631;28;103764;-65
2022/04/17 02:36:07;;;;;;;4.93;4.43;;;;;;;1.24;100.00;97384.31;5027895;28;101840;-65
2022/04/17 02:38:34;;;;;;;5.93;4.90;;;;;;;1.23;100.00;97382.69;5027805;28;105336;-65
2022/04/17 02:41:01;;;;;;;5.20;4.80;;;;;;;1.08;100.00;97394.00;5028907;28;103200;-65
2022/04/17 02:43:28;;;;;;;6.03;4.60;;;;;;;1.05;100.00;97383.88;5027970;28;101796;-66
2022/04/17 02:45:57;;;;;;;4.73;4.33;;;;;;;1.06;100.00;97391.56;5029300;28;102601;-65
2022/04/17 02:48:23;;;;;;;5.97;5.40;;;;;;;1.07;100.00;97389.75;5030628;28;105555;-65
2022/04/17 02:50:51;;;;;;;5.20;4.70;;;;;;;1.04;100.00;97388.28;5027427;28;105403;-65
2022/04/17 02:53:20;;;;;;;5.80;5.20;;;;;;;1.06;100.00;97385.50;5027185;28;105280;-66
2022/04/17 02:55:48;;;;;;;5.73;5.13;;;;;;;0.95;100.00;97393.69;5028983;27;102368;-66
2022/04/17 02:58:16;;;;;;;5.27;4.77;;;;;;;0.86;100.00;97378.97;5028564;28;101815;-65
2022/04/17 03:06:11;;;;;;;6.20;5.60;;;;;;;0.98;100.00;97378.47;5028653;27;105080;-66
2022/04/17 03:08:41;;;;;;;5.60;5.10;;;;;;;1.00;100.00;97376.50;5030561;28;105049;-65
2022/04/17 03:11:08;;;;;;;5.40;4.90;;;;;;;0.83;100.00;97377.50;5034662;28;101940;-65
2022/04/17 03:13:36;;;;;;;5.03;4.63;;;;;;;0.70;100.00;97373.75;5030045;28;105005;-65
2022/04/17 03:16:03;;;;;;;5.27;4.77;;;;;;;0.48;100.00;97369.19;5030881;28;101924;-65
2022/04/17 03:18:32;;;;;;;4.80;4.30;;;;;;;0.62;100.00;97361.50;5030803;28;105201;-65
2022/04/17 03:20:59;;;;;;;4.80;4.40;;;;;;;0.75;100.00;97366.22;5030432;28;105477;-65
2022/04/17 03:23:27;;;;;;;5.53;5.03;;;;;;;0.63;100.00;97354.47;5032108;28;101944;-65
2022/04/17 03:25:54;;;;;;;5.67;5.17;;;;;;;0.59;100.00;97355.78;5030960;28;103678;-65
2022/04/17 03:28:21;;;;;;;5.90;5.30;;;;;;;0.63;100.00;97362.31;5030058;28;105100;-66
2022/04/17 03:30:48;;;;;;;5.50;5.00;;;;;;;0.54;100.00;97365.91;5034176;28;101862;-65
2022/04/17 03:33:15;;;;;;;6.00;5.40;;;;;;;0.67;100.00;97359.19;5030113;28;105150;-66
2022/04/17 03:35:44;;;;;;;6.23;5.63;;;;;;;0.75;100.00;97355.75;5030470;28;101974;-65
2022/04/17 03:38:11;;;;;;;5.90;5.30;;;;;;;0.62;100.00;97363.31;5030730;28;104970;-65
2022/04/17 03:40:38;;;;;;;5.63;4.93;;;;;;;0.63;100.00;97370.19;5030072;28;105484;-66
2022/04/17 03:43:05;;;;;;;5.20;4.80;;;;;;;0.56;100.00;97370.00;5030630;28;101864;-66
2022/04/17 03:45:32;;;;;;;5.13;4.70;;;;;;;0.55;100.00;97363.16;5030360;28;105085;-66
2022/04/17 03:48:00;;;;;;;5.60;5.07;;;;;;;0.53;100.00;97364.28;5029802;28;105765;-65
2022/04/17 03:50:27;;;;;;;5.90;5.17;;;;;;;0.41;100.00;97363.00;5031775;27;101822;-66
2022/04/17 03:52:55;;;;;;;6.70;5.23;;;;;;;0.41;100.00;97355.97;5033197;28;105367;-65
2022/04/17 03:55:22;;;;;;;6.40;5.67;;;;;;;0.44;100.00;97362.69;5029818;28;101961;-65
2022/04/17 03:57:49;;;;;;;5.80;5.30;;;;;;;0.41;100.00;97363.81;5030418;28;104836;-65
2022/04/17 04:00:17;;;;;;;6.10;5.50;;;;;;;0.39;100.00;97364.97;5029667;28;105468;-66
2022/04/17 04:02:46;;;;;;;6.03;5.30;;;;;;;0.25;100.00;97365.59;5030422;28;102117;-66
2022/04/17 04:05:13;;;;;;;7.47;5.73;;;;;;;0.33;100.00;97366.41;5030277;28;105412;-66
2022/04/17 04:07:40;;;;;;;7.17;5.60;;;;;;;0.34;100.00;97348.94;5029281;28;105499;-65
2022/04/17 04:10:10;;;;;;;6.23;5.63;;;;;;;0.31;100.00;97350.09;5029965;28;101834;-65
2022/04/17 04:12:38;;;;;;;6.37;5.77;;;;;;;0.37;100.00;97356.44;5031814;28;102506;-65
2022/04/17 04:15:06;;;;;;;6.27;5.70;;;;;;;0.18;100.00;97356.78;5033994;28;103083;-65
2022/04/17 04:17:33;;;;;;;6.70;5.77;;;;;;;0.28;100.00;97352.22;5031248;28;102572;-65
2022/04/17 04:20:01;;;;;;;7.47;6.00;;;;;;;0.39;100.00;97349.28;5030938;28;102517;-65
2022/04/17 04:22:27;;;;;;;6.20;5.60;;;;;;;0.39;100.00;97347.44;5031212;28;102144;-65
2022/04/17 04:24:54;;;;;;;7.03;6.00;;;;;;;0.39;100.00;97344.03;5031249;28;102450;-66
2022/04/17 04:30:09;;;;;;;6.23;5.63;;;;;;;0.03;100.00;97335.69;5031204;27;101824;-65
2022/04/17 04:32:36;;;;;;;7.47;5.30;;;;;;;0.17;100.00;97329.81;5031375;28;102516;-66
2022/04/17 04:35:04;;;;;;;7.07;5.73;;;;;;;0.23;100.00;97333.56;5030240;28;102550;-65
2022/04/17 04:37:31;;;;;;;6.97;5.80;;;;;;;0.30;100.00;97332.75;5034661;27;101817;-66
2022/04/17 04:39:58;;;;;;;7.50;6.70;;;;;;;0.18;100.00;97335.84;5028985;28;104133;-65
2022/04/17 04:42:27;;;;;;;12.63;9.10;;;;;;;0.18;100.00;97341.88;5031021;27;101741;-65
2022/04/17 04:47:34;;;;;;;13.70;9.60;;;;;;;0.14;100.00;97342.38;5028766;28;103463;-65
2022/04/17 04:50:02;;;;;;;7.37;6.50;;;;;;;0.11;100.00;97342.72;5030544;28;101656;-65
2022/04/17 04:52:30;;;;;;;8.40;7.13;;;;;;;0.25;100.00;97347.28;5031120;27;102416;-66
2022/04/17 04:54:57;;;;;;;7.70;6.90;;;;;;;0.31;100.00;97350.09;5030384;28;102773;-65
2022/04/17 04:57:24;;;;;;;7.90;7.10;;;;;;;0.56;100.00;97351.69;5030617;27;101903;-65
2022/04/17 04:59:53;;;;;;;10.50;7.50;;;;;;;0.60;100.00;97347.78;5033580;28;102261;-66
2022/04/17 05:02:21;;;;;;;7.77;7.07;;;;;;;0.83;100.00;97347.91;5029033;28;101949;-65
2022/04/17 05:04:47;;;;;;;7.87;7.03;;;;;;;0.95;100.00;97346.56;5030743;28;102614;-65
2022/04/17 05:07:14;;;;;;;8.07;7.23;;;;;;;0.88;100.00;97350.84;5028533;28;104195;-66
2022/04/17 05:09:41;;;;;;;7.77;6.97;;;;;;;0.96;100.00;97348.19;5029169;28;102455;-65
2022/04/17 05:12:08;;;;;;;9.03;7.70;;;;;;;1.18;100.00;97347.47;5029193;28;105268;-65
2022/04/17 05:14:37;;;;;;;8.10;7.30;;;;;;;1.05;100.00;97355.84;5028270;28;105477;-65
2022/04/17 05:17:06;;;;;;;8.77;7.83;;;;;;;1.18;100.00;97345.69;5028872;28;101768;-65
2022/04/17 05:19:33;;;;;;;9.10;8.10;;;;;;;1.22;100.00;97357.44;5029216;28;105201;-65
2022/04/17 05:22:02;;;;;;;9.03;8.13;;;;;;;1.06;100.00;97365.38;5031889;28;105917;-65
2022/04/17 05:24:30;;;;;;;8.57;7.53;;;;;;;1.30;100.00;97359.22;5028854;28;103718;-65
2022/04/17 05:26:57;;;;;;;8.90;8.00;;;;;;;1.46;100.00;97359.16;5028324;28;105522;-65
2022/04/17 05:29:24;;;;;;;12.50;9.57;;;;;;;1.57;100.00;97353.53;5028200;27;101875;-65
2022/04/17 05:31:51;;;;;;;10.07;8.97;;;;;;;1.68;100.00;97351.38;5028974;28;104859;-65
2022/04/17 05:34:20;;;;;;;10.20;9.17;;;;;;;1.93;100.00;97354.66;5028085;28;105157;-65
2022/04/17 05:36:47;;;;;;;11.30;8.90;;;;;;;2.10;100.00;97354.41;5028792;28;102456;-65
2022/04/17 05:39:14;;;;;;;9.00;8.10;;;;;;;2.29;100.00;97353.13;5028706;28;105574;-65
2022/04/17 05:41:41;;;;;;;9.47;8.10;;;;;;;2.34;100.00;97353.38;5031719;28;104258;-65
2022/04/17 05:44:09;;;;;;;9.67;8.67;;;;;;;2.27;100.00;97357.72;5030057;28;102542;-65
2022/04/17 05:46:37;;;;;;;9.33;8.43;;;;;;;2.10;100.00;97356.19;5029259;28;103054;-65
2022/04/17 05:49:05;;;;;;;9.87;8.90;;;;;;;2.00;100.00;97361.66;5028856;28;102063;-65
2022/04/17 05:51:36;;;;;;;9.70;8.70;;;;;;;1.97;100.00;97350.72;5028440;28;105258;-65
2022/04/17 05:54:07;;;;;;;10.63;9.17;;;;;;;2.11;100.00;97352.56;5027864;28;105650;-65
2022/04/17 05:56:34;;;;;;;10.13;9.07;;;;;;;2.24;100.00;97363.31;5028260;28;101781;-65
2022/04/17 05:59:01;;;;;;;11.90;9.87;;;;;;;2.15;100.00;97361.72;5029800;28;103937;-65
2022/04/17 06:01:29;;;;;;;10.27;9.27;;;;;;;2.25;100.00;97354.44;5027591;28;105462;-65
2022/04/17 06:03:55;;;;;;;11.07;9.90;;;;;;;2.30;100.00;97358.16;5031648;28;101907;-65
2022/04/17 06:06:22;;;;;;;9.83;8.70;;;;;;;2.55;100.00;97353.53;5027864;28;103734;-65
2022/04/17 06:08:51;;;;;;;10.50;9.40;;;;;;;2.84;100.00;97356.25;5028322;28;101906;-65
2022/04/17 06:11:18;;;;;;;10.20;9.20;;;;;;;3.07;100.00;97357.00;5028254;28;103671;-65
2022/04/17 06:13:45;;;;;;;10.10;9.07;;;;;;;3.02;100.00;97348.84;5011006;28;105702;-65
2022/04/17 06:16:12;;;;;;;9.60;8.60;;;;;;;3.24;100.00;97348.78;5027783;28;101929;-65
2022/04/17 06:18:39;;;;;;;9.23;8.30;;;;;;;3.14;100.00;97350.03;5028176;28;105116;-65
2022/04/17 06:21:06;;;;;;;9.30;8.40;;;;;;;3.21;100.00;97348.28;5027627;28;105141;-65
2022/04/17 06:23:33;;;;;;;9.30;8.40;;;;;;;3.45;100.00;97348.81;5028280;28;101857;-65
2022/04/17 06:26:02;;;;;;;8.53;7.50;;;;;;;3.59;100.00;97353.25;5032310;28;102821;-65
2022/04/17 06:28:29;;;;;;;8.43;7.53;;;;;;;3.75;100.00;97346.97;5027801;28;101951;-65
2022/04/17 06:30:57;;;;;;;10.00;8.33;;;;;;;3.77;100.00;97355.50;5061965;27;104070;-65
2022/04/17 06:33:24;;;;;;;8.50;7.70;;;;;;;4.03;100.00;97355.78;5027327;28;105242;-65
2022/04/17 06:35:52;;;;;;;9.07;8.17;;;;;;;4.25;100.00;97354.84;5027935;28;102253;-65
2022/04/17 06:38:20;;;;;;;8.80;7.90;;;;;;;4.52;100.00;97367.22;5028005;28;105169;-65
2022/04/17 06:40:47;;;;;;;7.77;6.97;;;;;;;4.51;100.00;97361.16;5028142;27;105397;-65
2022/04/17 06:43:15;;;;;;;8.57;7.70;;;;;;;4.63;100.00;97364.91;5031374;28;101857;-65
2022/04/17 06:45:44;;;;;;;8.33;7.53;;;;;;;4.74;100.00;97360.97;5031437;28;105101;-65
2022/04/17 06:48:12;;;;;;;6.73;6.13;;;;;;;4.98;100.00;97353.44;5034052;28;105693;-65
2022/04/17 06:50:40;;;;;;;5.93;5.33;;;;;;;5.15;100.00;97353.94;5031265;28;105354;-65
2022/04/17 06:53:07;;;;;;;6.33;5.70;;;;;;;5.26;100.00;97353.41;5030954;28;105502;-65
2022/04/17 06:55:34;;;;;;;6.67;5.97;;;;;;;5.31;100.00;97348.38;5030710;28;101941;-65
2022/04/17 06:58:01;;;;;;;6.93;6.23;;;;;;;5.52;100.00;97345.66;5031203;28;104806;-65
2022/04/17 07:00:30;;;;;;;6.90;6.17;;;;;;;5.59;100.00;97346.50;5030264;28;105409;-65
2022/04/17 07:02:57;;;;;;;6.83;6.13;;;;;;;5.72;100.00;97342.09;5032675;28;101689;-65
2022/04/17 07:05:25;;;;;;;6.90;6.30;;;;;;;5.88;100.00;97347.06;5031079;28;104534;-65
2022/04/17 07:08:03;;;;;;;7.53;6.37;;;;;;;5.95;100.00;97345.25;5030461;28;104511;-65
2022/04/17 07:10:31;;;;;;;7.03;6.33;;;;;;;6.12;100.00;97343.09;5068709;27;101771;-65
2022/04/17 07:12:58;;;;;;;6.77;5.80;;;;;;;6.30;100.00;97340.69;5030495;28;103749;-65
2022/04/17 07:15:26;;;;;;;6.30;5.70;;;;;;;6.42;100.00;97331.13;5030629;28;101904;-65
2022/04/17 07:17:55;;;;;;;5.73;5.00;;;;;;;6.51;100.00;97329.94;5030776;28;105699;-65
2022/04/17 07:20:23;;;;;;;6.70;4.73;;;;;;;6.70;100.00;97322.03;5030325;28;104163;-65
2022/04/17 07:22:50;;;;;;;6.07;5.40;;;;;;;6.66;100.00;97328.72;5030829;28;101814;-65
2022/04/17 07:25:19;;;;;;;6.43;5.20;;;;;;;7.05;100.00;97319.97;5030801;28;105218;-65
2022/04/17 07:27:48;;;;;;;4.70;4.30;;;;;;;7.11;100.00;97316.50;5030106;28;105649;-65
2022/04/17 07:30:16;;;;;;;5.37;4.63;;;;;;;7.23;100.00;97312.19;5030529;28;101908;-65
2022/04/17 07:32:45;;;;;;;6.10;4.20;;;;;;;7.75;100.00;97314.69;5033467;28;105829;-65
2022/04/17 07:35:15;;;;;;;4.27;3.90;;;;;;;7.80;100.00;97304.28;5030828;28;101987;-65
2022/04/17 07:37:42;;;;;;;4.63;4.00;;;;;;;8.02;100.00;97302.97;5030783;28;105566;-65
2022/04/17 07:40:11;;;;;;;4.40;3.83;;;;;;;8.23;100.00;97306.13;5030138;28;105663;-65
2022/04/17 07:42:38;;;;;;;3.70;3.40;;;;;;;8.44;100.00;97311.06;5013879;28;102031;-65
2022/04/17 07:45:06;;;;;;;3.50;3.20;;;;;;;8.74;100.00;97312.09;5030576;28;105069;-65
2022/04/17 07:47:33;;;;;;;3.87;3.47;;;;;;;8.68;100.00;97314.78;5063646;27;103717;-65
2022/04/17 07:50:00;;;;;;;4.10;3.20;;;;;;;8.87;99.15;97321.75;5031966;28;101772;-65
2022/04/17 07:52:29;;;;;;;3.40;3.10;;;;;;;9.06;99.20;97315.47;5032483;28;105245;-65
2022/04/17 07:54:56;;;;;;;4.07;3.27;;;;;;;9.03;99.69;97322.03;5030320;28;101963;-65
2022/04/17 07:57:23;;;;;;;3.40;3.10;;;;;;;9.00;88.49;97308.41;5030189;28;105498;-65
2022/04/17 07:59:50;;;;;;;3.43;3.17;;;;;;;9.11;94.40;97313.78;5029619;28;105048;-65
2022/04/17 08:02:28;;;;;;;3.63;3.07;;;;;;;9.47;92.03;97300.56;5030032;28;101952;-65
2022/04/17 08:04:55;;;;;;;3.30;3.00;;;;;;;9.77;91.56;97316.56;5031803;27;102854;-65
2022/04/17 08:07:22;;;;;;;4.43;3.30;;;;;;;9.66;87.24;97322.63;5030771;28;102485;-65
2022/04/17 08:09:50;;;;;;;3.33;3.00;;;;;;;9.83;80.16;97310.34;5031427;27;101784;-65
2022/04/17 08:12:18;;;;;;;3.30;3.00;;;;;;;10.09;71.33;97310.06;5031553;27;102474;-65
2022/04/17 08:14:44;;;;;;;3.43;3.20;;;;;;;10.21;75.57;97303.75;5033120;28;104984;-65
2022/04/17 08:17:11;;;;;;;3.40;3.10;;;;;;;10.03;71.29;97297.63;5031316;28;102494;-65
2022/04/17 08:19:38;;;;;;;3.47;3.17;;;;;;;10.28;69.32;97295.66;5029455;28;105811;-65
2022/04/17 08:22:05;;;;;;;3.73;3.43;;;;;;;10.46;75.20;97301.75;5031555;27;101993;-65
2022/04/17 08:24:32;;;;;;;3.30;3.00;;;;;;;10.17;65.86;97301.75;5031554;28;102314;-65
2022/04/17 08:27:01;;;;;;;3.40;3.10;;;;;;;9.97;66.37;97298.53;5029226;28;104659;-65
2022/04/17 08:29:28;;;;;;;3.03;2.83;;;;;;;10.24;67.28;97292.66;5029641;28;102396;-65
2022/04/17 08:31:55;;;;;;;3.23;3.00;;;;;;;10.28;65.23;97290.34;5031058;28;102511;-65
2022/04/17 08:34:22;;;;;;;3.33;3.03;;;;;;;10.35;66.81;97288.44;5029022;28;105009;-65
2022/04/17 08:36:50;;;;;;;3.37;3.10;;;;;;;10.46;64.13;97285.00;5033167;28;101931;-65
2022/04/17 08:39:17;;;;;;;3.33;3.03;;;;;;;10.52;59.90;97289.41;5029135;28;105382;-65
2022/04/17 08:41:46;;;;;;;2.97;2.77;;;;;;;10.29;61.77;97295.44;5031088;28;101946;-65
2022/04/17 08:44:15;;;;;;;3.03;2.80;;;;;;;10.56;63.32;97279.91;5029253;28;105397;-65
2022/04/17 08:46:42;;;;;;;3.33;3.10;;;;;;;10.62;62.92;97281.66;5029060;28;105534;-65
2022/04/17 08:49:11;;;;;;;5.03;3.20;;;;;;;10.98;60.16;97286.78;5029361;28;101846;-65
2022/04/17 08:51:40;;;;;;;3.33;3.03;;;;;;;10.98;57.63;97284.13;5029259;28;105476;-65
2022/04/17 08:54:07;;;;;;;3.50;3.20;;;;;;;11.18;55.40;97280.06;5030105;28;104677;-65
2022/04/17 08:56:36;;;;;;;3.50;3.20;;;;;;;11.37;62.30;97275.44;5029123;28;101883;-65
2022/04/17 08:59:03;;;;;;;3.20;3.00;;;;;;;11.47;59.83;97273.00;5032209;28;105175;-65
2022/04/17 09:01:33;;;;;;;3.80;3.13;;;;;;;11.54;57.33;97279.00;5030640;28;101815;-65
2022/04/17 09:04:00;;;;;;;3.13;2.87;;;;;;;11.28;55.42;97266.19;5028351;28;105551;-65
2022/04/17 09:06:27;;;;;;;3.20;2.90;;;;;;;11.14;54.05;97265.63;5062353;27;103906;-65
2022/04/17 09:08:59;;;;;;;3.37;3.07;;;;;;;11.12;53.44;97256.25;5030674;27;101787;-65
2022/04/17 09:11:28;;;;;;;4.13;2.87;;;;;;;11.42;55.76;97251.56;5029305;28;106289;-65
2022/04/17 09:13:56;;;;;;;2.80;2.60;;;;;;;11.06;53.99;97249.19;5028229;28;105576;-65
2022/04/17 09:16:27;;;;;;;3.50;3.20;;;;;;;10.99;56.29;97243.16;5029036;28;101755;-65
2022/04/17 09:18:57;;;;;;;2.80;2.60;;;;;;;11.33;50.53;97237.81;5029254;28;105608;-65
2022/04/17 09:21:32;;;;;;;3.00;2.70;;;;;;;11.34;51.44;97238.63;5031700;28;105817;-65
2022/04/17 09:24:17;;;;;;;2.90;2.70;;;;;;;11.60;53.85;97236.28;5028855;28;105684;-65
2022/04/17 09:26:55;;;;;;;3.37;2.80;;;;;;;11.81;49.03;97237.47;5028363;28;105368;-65
2022/04/17 09:29:24;;;;;;;2.63;2.43;;;;;;;12.05;50.86;97233.69;5028741;28;101840;-65
2022/04/17 09:31:59;;;;;;;3.23;2.63;;;;;;;12.29;48.59;97236.00;5028932;28;105808;-65
2022/04/17 09:34:29;;;;;;;2.70;2.50;;;;;;;12.39;45.25;97235.38;5028430;28;106265;-65
2022/04/17 09:36:58;;;;;;;2.50;2.40;;;;;;;12.48;44.31;97229.38;5028469;28;101866;-65
2022/04/17 09:39:31;;;;;;;2.63;2.43;;;;;;;12.47;42.89;97224.28;5028920;28;105615;-65
2022/04/17 09:41:59;;;;;;;3.00;2.37;;;;;;;12.48;44.11;97224.06;5027827;28;105135;-65
2022/04/17 09:44:37;;;;;;;3.07;2.70;;;;;;;12.39;44.04;97224.69;5066326;27;101765;-65
2022/04/17 09:47:06;;;;;;;4.53;2.60;;;;;;;12.50;44.12;97216.63;5029298;28;102889;-65
2022/04/17 09:49:51;;;;;;;3.10;2.30;;;;;;;12.72;42.32;97209.50;5028340;28;102026;-65
2022/04/17 09:52:19;;;;;;;2.90;2.60;;;;;;;12.90;43.61;97211.09;5028477;28;105452;-65
2022/04/17 09:54:46;;;;;;;2.27;2.07;;;;;;;12.96;42.23;97207.47;5029341;27;103000;-65
2022/04/17 09:57:19;;;;;;;2.93;2.50;;;;;;;12.33;44.62;97193.66;5028203;28;102025;-65
2022/04/17 09:59:46;;;;;;;2.70;2.50;;;;;;;13.02;43.23;97203.84;5030025;28;102879;-65
2022/04/17 10:02:14;;;;;;;3.10;2.47;;;;;;;12.92;42.55;97193.00;5028559;28;103274;-65
2022/04/17 10:04:45;;;;;;;2.60;2.40;;;;;;;13.37;43.72;97190.97;5033043;27;101837;-65
2022/04/17 10:07:14;;;;;;;2.73;2.40;;;;;;;12.96;41.10;97189.59;5029360;27;102593;-65
2022/04/17 10:09:42;;;;;;;2.40;2.13;;;;;;;13.03;41.23;97189.44;5029468;27;101783;-65
2022/04/17 10:12:09;;;;;;;2.40;2.20;;;;;;;12.91;40.30;97181.50;5029877;28;102816;-65
2022/04/17 10:14:37;;;;;;;3.20;2.07;;;;;;;13.15;42.81;97176.78;5027646;27;105491;-65
2022/04/17 10:17:08;;;;;;;2.60;2.40;;;;;;;13.38;42.85;97168.53;5033246;27;101792;-65
2022/04/17 10:19:37;;;;;;;2.83;1.90;;;;;;;13.07;41.55;97164.66;5031763;28;105538;-65
2022/04/17 10:22:04;;;;;;;2.90;2.47;;;;;;;13.26;41.04;97159.84;5032716;28;102516;-65
2022/04/17 10:24:36;;;;;;;3.30;2.03;;;;;;;13.71;41.48;97155.00;5033244;27;101693;-65
2022/04/17 10:27:06;;;;;;;2.50;2.30;;;;;;;13.67;41.63;97149.38;5036194;27;102906;-65
2022/04/17 10:29:41;;;;;;;2.47;2.27;;;;;;;13.85;40.78;97150.91;5033071;27;101747;-65
2022/04/17 10:32:43;;;;;;;2.13;1.93;;;;;;;13.69;38.11;97151.78;5033366;28;101959;-65
2022/04/17 10:35:18;;;;;;;3.20;2.90;;;;;;;13.53;40.58;97136.66;5032386;28;102706;-65
2022/04/17 10:38:22;;;;;;;3.17;2.60;;;;;;;14.03;42.96;97129.94;5033333;28;101666;-65
2022/04/17 10:40:59;;;;;;;2.70;2.50;;;;;;;14.09;40.39;97130.78;5032884;28;102356;-65
2022/04/17 10:43:34;;;;;;;2.90;2.30;;;;;;;14.02;40.10;97127.53;5032438;28;102890;-65
2022/04/17 10:46:09;;;;;;;2.43;2.23;;;;;;;14.05;41.17;97125.16;5032909;27;101733;-65
2022/04/17 10:48:44;;;;;;;3.63;2.40;;;;;;;14.01;39.29;97121.34;5032519;28;102499;-65
2022/04/17 10:51:21;;;;;;;2.30;1.97;;;;;;;14.24;39.42;97121.06;5034023;28;105551;-65
2022/04/17 10:54:03;;;;;;;2.23;2.00;;;;;;;14.35;40.11;97109.38;5031372;28;105480;-65
2022/04/17 10:56:33;;;;;;;2.33;2.00;;;;;;;14.42;37.37;97109.97;5030354;28;105329;-65
2022/04/17 10:59:03;;;;;;;1.60;1.50;;;;;;;14.33;36.46;97110.72;5031224;28;101723;-65
2022/04/17 11:02:05;;;;;;;2.43;1.87;;;;;;;14.66;37.78;97105.06;5031020;28;105009;-65
2022/04/17 11:04:39;;;;;;;2.50;2.30;;;;;;;14.67;37.59;97090.59;4992473;28;105887;-65
2022/04/17 11:07:28;;;;;;;2.30;2.10;;;;;;;14.65;39.30;97090.03;4993375;28;102054;-65
2022/04/17 11:10:32;;;;;;;2.40;2.20;;;;;;;14.51;38.17;97095.03;4993052;28;104983;-64
2022/04/17 11:13:00;;;;;;;2.83;1.90;;;;;;;14.56;37.08;97089.72;5009464;28;102570;-64
2022/04/17 11:15:30;;;;;;;2.20;2.10;;;;;;;14.50;37.77;97085.38;4996393;28;101860;-64
2022/04/17 11:18:02;;;;;;;2.50;2.00;;;;;;;14.29;37.64;97082.84;4992425;28;105630;-64
2022/04/17 11:20:30;;;;;;;2.60;2.40;;;;;;;14.32;37.84;97083.13;4992861;28;102083;-64
2022/04/17 11:22:58;;;;;;;2.30;2.10;;;;;;;14.71;38.45;97072.97;4992809;28;104431;-64
2022/04/17 11:25:29;;;;;;;2.00;1.80;;;;;;;15.05;39.94;97083.00;4992477;28;105020;-64
2022/04/17 11:28:02;;;;;;;2.20;2.00;;;;;;;15.31;37.24;97084.72;4991918;28;102277;-64
2022/04/17 11:30:36;;;;;;;3.00;2.33;;;;;;;15.09;37.87;97080.66;4992592;28;105124;-64
2022/04/17 11:33:04;;;;;;;2.40;1.80;;;;;;;15.02;36.15;97072.84;5009000;28;102651;-64
2022/04/17 11:35:32;;;;;;;1.57;1.47;;;;;;;14.95;36.64;97072.28;5010648;28;101896;-64
2022/04/17 11:38:05;;;;;;;1.93;1.67;;;;;;;14.99;36.18;97077.91;5033437;28;105578;-64
2022/04/17 11:40:35;;;;;;;1.60;1.50;;;;;;;15.38;35.62;97068.44;5030666;28;101961;-64
2022/04/17 11:43:13;;;;;;;1.60;1.50;;;;;;;15.47;34.74;97067.66;5030430;28;105220;-64
2022/04/17 11:45:42;;;;;;;1.40;1.30;;;;;;;15.43;34.17;97063.09;5030034;28;104932;-64